Time;durP1;ratioP1;P1;durP2;ratioP2;P2;SDS_P1;SDS_P2;PMS_P1;PMS_P2;Temp;Humidity;BMP_temperature;BMP_pressure;BME280_temperature;BME280_humidity;BME280_pressure;Samples;Min_cycle;Max_cycle;Signal;HPM_P1;HPM_P2
2021/11/15 00:00:16;;;;;;;28.67;18.90;;;;;;;7.42;100.00;102455.78;2090637;28;19909;-69
2021/11/15 00:01:16;;;;;;;31.02;20.27;;;;;;;7.39;100.00;102459.25;2090708;28;20082;-69
2021/11/15 00:02:17;;;;;;;28.35;20.27;;;;;;;7.37;100.00;102455.81;2089978;28;20151;-69
2021/11/15 00:03:19;;;;;;;33.63;20.95;;;;;;;7.38;100.00;102452.34;2090113;28;20029;-69
2021/11/15 00:04:20;;;;;;;28.20;19.40;;;;;;;7.37;100.00;102442.84;2090637;28;20504;-68
2021/11/15 00:05:20;;;;;;;;;;;;;;;7.38;100.00;102447.16;2090915;28;20033;-69
2021/11/15 00:06:20;;;;;;;27.30;18.08;;;;;;;7.39;99.80;102442.84;2090666;28;20317;-69
2021/11/15 00:07:21;;;;;;;32.00;19.40;;;;;;;7.42;100.00;102451.47;2090624;28;20032;-69
2021/11/15 00:08:21;;;;;;;29.70;19.27;;;;;;;7.41;99.92;102447.16;2090565;28;20421;-70
2021/11/15 00:09:21;;;;;;;30.17;19.60;;;;;;;7.41;100.00;102441.94;2090622;28;20021;-69
2021/11/15 00:10:22;;;;;;;33.87;18.77;;;;;;;7.41;100.00;102444.53;2098214;28;20025;-69
2021/11/15 00:11:22;;;;;;;32.90;20.95;;;;;;;7.41;100.00;102452.34;2098383;28;20488;-69
2021/11/15 00:12:22;;;;;;;32.83;19.93;;;;;;;7.41;99.74;102444.53;2090679;28;20398;-69
2021/11/15 00:13:23;;;;;;;32.77;20.63;;;;;;;7.41;99.78;102446.28;2098254;28;20039;-69
2021/11/15 00:14:23;;;;;;;32.43;20.67;;;;;;;7.38;100.00;102439.34;2089990;28;20486;-69
2021/11/15 00:15:25;;;;;;;28.90;19.60;;;;;;;7.38;99.96;102447.16;2090185;28;20028;-68
2021/11/15 00:16:25;;;;;;;31.55;18.58;;;;;;;7.39;99.66;102448.88;2090628;28;20400;-69
2021/11/15 00:17:27;;;;;;;29.38;19.50;;;;;;;7.40;99.65;102440.22;2089836;28;20025;-69
2021/11/15 00:18:27;;;;;;;28.65;19.85;;;;;;;7.40;99.79;102440.22;2090006;28;20501;-69
2021/11/15 00:19:28;;;;;;;30.37;20.67;;;;;;;7.39;100.00;102443.66;2090627;28;20074;-69
2021/11/15 00:20:28;;;;;;;29.87;21.47;;;;;;;7.38;100.00;102439.34;2090585;28;20025;-69
2021/11/15 00:21:29;;;;;;;30.52;19.70;;;;;;;7.37;100.00;102440.22;2090580;28;20712;-69
2021/11/15 00:22:29;;;;;;;28.08;18.30;;;;;;;7.37;100.00;102435.03;2090601;28;20028;-69
2021/11/15 00:23:29;;;;;;;32.23;20.83;;;;;;;7.35;100.00;102439.34;2090615;28;20052;-69
2021/11/15 00:24:30;;;;;;;29.77;20.23;;;;;;;7.34;99.70;102435.03;2090401;28;20171;-69
2021/11/15 00:25:30;;;;;;;29.75;19.25;;;;;;;7.35;98.70;102447.16;2089885;28;20040;-69
2021/11/15 00:26:31;;;;;;;31.53;20.77;;;;;;;7.37;98.63;102444.56;2081609;28;20037;-69
2021/11/15 00:27:32;;;;;;;31.05;20.60;;;;;;;7.37;98.45;102440.22;2089877;28;20478;-69
2021/11/15 00:28:32;;;;;;;33.88;20.58;;;;;;;7.37;98.31;102440.22;2090550;28;20021;-69
2021/11/15 00:29:32;;;;;;;30.67;19.27;;;;;;;7.37;98.39;102444.56;2090486;28;20040;-69
2021/11/15 00:30:33;;;;;;;33.23;20.50;;;;;;;7.36;98.66;102440.22;2090476;28;20029;-69
2021/11/15 00:31:33;;;;;;;30.20;20.83;;;;;;;7.35;98.19;102444.56;2090491;28;20386;-69
2021/11/15 00:32:34;;;;;;;30.23;19.92;;;;;;;7.35;98.92;102431.56;2090488;28;20044;-69
2021/11/15 00:33:34;;;;;;;26.33;19.70;;;;;;;7.36;98.86;102438.50;2090489;28;20588;-69
2021/11/15 00:34:35;;;;;;;27.00;19.03;;;;;;;7.35;98.97;102439.34;2090515;28;20268;-69
2021/11/15 00:35:35;;;;;;;33.10;20.73;;;;;;;7.33;98.54;102438.50;2090467;28;20478;-70
2021/11/15 00:36:36;;;;;;;33.17;20.30;;;;;;;7.31;98.41;102430.72;2090391;28;20029;-69
2021/11/15 00:37:37;;;;;;;32.28;20.10;;;;;;;7.31;98.34;102435.91;2090474;28;20028;-69
2021/11/15 00:38:37;;;;;;;32.00;19.70;;;;;;;7.32;97.61;102442.84;2089854;28;20017;-69
2021/11/15 00:39:37;;;;;;;27.73;17.53;;;;;;;7.33;98.46;102428.97;2089849;28;20553;-70
2021/11/15 00:40:38;;;;;;;29.20;17.80;;;;;;;7.33;98.72;102433.31;2090424;28;20079;-69
2021/11/15 00:41:38;;;;;;;28.27;18.60;;;;;;;7.32;97.94;102437.63;2090441;28;20040;-70
2021/11/15 00:42:39;;;;;;;25.53;18.53;;;;;;;7.33;98.71;102441.97;2089667;28;20036;-68
2021/11/15 00:43:39;;;;;;;29.15;18.85;;;;;;;7.30;97.84;102430.72;2089843;28;20025;-68
2021/11/15 00:44:40;;;;;;;27.20;19.70;;;;;;;7.30;97.79;102441.13;2090384;28;20060;-69
2021/11/15 00:45:40;;;;;;;29.63;19.15;;;;;;;7.32;98.55;102441.97;2090395;28;20120;-69
2021/11/15 00:46:41;;;;;;;27.13;17.98;;;;;;;7.31;97.66;102441.13;2090431;28;20098;-69
2021/11/15 00:47:42;;;;;;;29.20;19.00;;;;;;;7.32;98.05;102434.16;2090385;28;20533;-69
2021/11/15 00:48:42;;;;;;;25.45;17.25;;;;;;;7.31;97.71;102430.72;2090436;28;20390;-70
2021/11/15 00:49:43;;;;;;;27.97;19.20;;;;;;;7.30;98.48;102433.31;2090495;28;20025;-70
2021/11/15 00:50:43;;;;;;;25.80;18.92;;;;;;;7.26;97.88;102442.88;2090356;28;20059;-69
2021/11/15 00:51:44;;;;;;;29.00;19.37;;;;;;;7.27;96.54;102430.72;2090366;28;20020;-69
2021/11/15 00:52:45;;;;;;;29.73;18.90;;;;;;;7.31;96.77;102445.44;2090408;28;20017;-69
2021/11/15 00:53:45;;;;;;;;;;;;;;;7.32;97.28;102436.75;2090835;28;20493;-70
2021/11/15 00:54:45;;;;;;;24.15;16.13;;;;;;;7.30;96.81;102433.31;2089898;28;19908;-70
2021/11/15 00:55:46;;;;;;;25.50;17.20;;;;;;;7.31;96.66;102435.03;2090427;28;20425;-69
2021/11/15 00:56:47;;;;;;;27.70;17.15;;;;;;;7.31;96.66;102433.31;2090363;28;20394;-69
2021/11/15 00:57:47;;;;;;;24.73;17.17;;;;;;;7.31;96.35;102433.31;2089663;28;20044;-69
2021/11/15 00:58:48;;;;;;;26.55;17.25;;;;;;;7.31;96.10;102440.25;2089730;28;20028;-70
2021/11/15 00:59:49;;;;;;;23.50;17.02;;;;;;;7.28;96.22;102435.03;2090331;28;20021;-70
2021/11/15 01:00:49;;;;;;;27.03;18.40;;;;;;;7.29;95.76;102436.81;2090328;28;20116;-69
2021/11/15 01:01:49;;;;;;;27.60;18.47;;;;;;;7.31;96.44;102440.25;2090358;28;20110;-69
2021/11/15 01:02:50;;;;;;;27.50;19.27;;;;;;;7.29;95.69;102436.81;2090348;28;20021;-69
2021/11/15 01:03:51;;;;;;;25.00;16.95;;;;;;;7.28;96.42;102435.94;2090336;28;20115;-68
2021/11/15 01:04:51;;;;;;;25.20;17.38;;;;;;;7.27;96.93;102443.72;2089547;28;20112;-69
2021/11/15 01:05:52;;;;;;;27.40;17.70;;;;;;;7.26;96.84;102436.81;2089689;28;20021;-70
2021/11/15 01:06:54;;;;;;;27.52;16.98;;;;;;;7.26;96.69;102437.69;2090222;28;20017;-70
2021/11/15 01:07:54;;;;;;;28.80;17.55;;;;;;;7.26;96.99;102436.81;2090153;28;20091;-70
2021/11/15 01:08:54;;;;;;;26.77;18.33;;;;;;;7.25;97.59;102446.31;2089566;28;20025;-70
2021/11/15 01:09:55;;;;;;;22.53;16.87;;;;;;;7.21;97.03;102440.28;2089702;28;20028;-68
2021/11/15 01:10:55;;;;;;;24.57;17.63;;;;;;;7.21;96.63;102445.47;2090285;28;20036;-69
2021/11/15 01:11:56;;;;;;;24.63;17.63;;;;;;;7.24;96.56;102441.13;2089624;28;20121;-69
2021/11/15 01:12:57;;;;;;;25.13;17.48;;;;;;;7.24;96.74;102448.91;2089695;28;20025;-70
2021/11/15 01:14:01;;;;;;;26.08;17.83;;;;;;;7.23;96.97;102448.06;2090264;28;20024;-69
2021/11/15 01:15:02;;;;;;;23.95;16.80;;;;;;;7.22;97.13;102441.13;2090165;28;20029;-70
2021/11/15 01:16:06;;;;;;;23.33;16.48;;;;;;;7.20;96.35;102446.34;2090247;28;20021;-70
2021/11/15 01:17:06;;;;;;;26.80;17.85;;;;;;;7.20;95.08;102438.56;2090231;28;20534;-69
2021/11/15 01:18:08;;;;;;;23.93;16.77;;;;;;;7.22;94.80;102447.19;2089609;28;20028;-69
2021/11/15 01:19:08;;;;;;;26.50;18.25;;;;;;;7.25;94.95;102446.31;2089587;28;20024;-68
2021/11/15 01:20:12;;;;;;;23.85;17.23;;;;;;;7.26;95.30;102447.19;2090234;28;20104;-69
2021/11/15 01:21:13;;;;;;;25.08;16.92;;;;;;;7.25;95.08;102446.31;2090131;28;20029;-70
2021/11/15 01:22:13;;;;;;;23.63;17.05;;;;;;;7.25;95.04;102450.66;2089494;28;20017;-70
2021/11/15 01:23:14;;;;;;;25.47;16.30;;;;;;;7.25;94.62;102450.66;2089540;28;20029;-70
2021/11/15 01:24:15;;;;;;;22.05;16.00;;;;;;;7.26;94.73;102447.19;2089314;28;20095;-69
2021/11/15 01:25:16;;;;;;;24.45;17.85;;;;;;;7.27;94.37;102448.91;2089508;28;20478;-70
2021/11/15 01:26:17;;;;;;;23.50;16.33;;;;;;;7.26;95.57;102445.47;2090218;28;20045;-69
2021/11/15 01:27:17;;;;;;;24.20;16.70;;;;;;;7.24;95.87;102443.72;2090147;28;20292;-70
2021/11/15 01:28:17;;;;;;;25.57;16.83;;;;;;;7.21;96.04;102454.97;2089466;28;20406;-70
2021/11/15 01:29:18;;;;;;;22.87;16.07;;;;;;;7.19;95.16;102452.38;2089702;28;20025;-69
2021/11/15 01:30:19;;;;;;;26.77;17.03;;;;;;;7.20;95.45;102446.34;2089424;28;20082;-69
2021/11/15 01:31:20;;;;;;;24.33;15.73;;;;;;;7.20;95.98;102454.13;2089390;28;20043;-70
2021/11/15 01:32:20;;;;;;;;;;;;;;;7.21;95.25;102450.66;2089964;28;20110;-70
2021/11/15 01:33:21;;;;;;;24.83;14.52;;;;;;;7.18;95.71;102450.66;2090152;28;19913;-70
2021/11/15 01:34:21;;;;;;;25.37;15.43;;;;;;;7.16;96.13;102457.59;2090145;28;20040;-68
2021/11/15 01:35:23;;;;;;;26.80;16.47;;;;;;;7.14;95.84;102448.06;2090132;28;20032;-69
2021/11/15 01:36:23;;;;;;;25.80;15.52;;;;;;;7.14;95.41;102448.94;2090009;28;20032;-69
2021/11/15 01:37:23;;;;;;;24.20;16.03;;;;;;;7.13;95.08;102456.72;2090194;28;20459;-69
2021/11/15 01:38:25;;;;;;;21.50;14.83;;;;;;;7.12;94.60;102455.84;2090229;28;20028;-70
2021/11/15 01:39:25;;;;;;;25.90;16.35;;;;;;;7.14;94.01;102455.84;2090074;28;20471;-69
2021/11/15 01:40:29;;;;;;;24.43;16.70;;;;;;;7.16;93.97;102452.41;2090178;28;20021;-69
2021/11/15 01:41:29;;;;;;;27.70;17.35;;;;;;;7.15;94.02;102450.66;2090048;28;20044;-69
2021/11/15 01:42:30;;;;;;;25.58;16.45;;;;;;;7.16;94.13;102451.53;2097633;28;20535;-69
2021/11/15 01:43:30;;;;;;;23.47;16.00;;;;;;;7.14;94.33;102454.13;2097902;28;20477;-69
2021/11/15 01:44:31;;;;;;;23.73;15.53;;;;;;;7.14;95.71;102454.13;2090046;28;20052;-69
2021/11/15 01:45:36;;;;;;;23.10;14.98;;;;;;;7.13;94.61;102457.59;2090068;28;20055;-69
2021/11/15 01:46:36;;;;;;;21.13;14.40;;;;;;;7.12;94.77;102450.66;2090066;28;20033;-69
2021/11/15 01:47:37;;;;;;;26.27;16.70;;;;;;;7.09;94.58;102456.72;2090056;28;20059;-69
2021/11/15 01:48:37;;;;;;;23.77;15.80;;;;;;;7.09;94.41;102451.53;2090071;28;20019;-68
2021/11/15 01:49:37;;;;;;;22.83;16.57;;;;;;;7.11;93.98;102451.53;2090103;28;20067;-68
2021/11/15 01:50:38;;;;;;;25.80;14.60;;;;;;;7.09;94.72;102451.53;2090064;28;20024;-68
2021/11/15 01:51:39;;;;;;;24.05;16.42;;;;;;;7.08;94.32;102455.00;2090081;28;20032;-69
2021/11/15 01:52:39;;;;;;;22.98;16.00;;;;;;;7.07;94.03;102457.59;2090136;28;20018;-69
2021/11/15 01:53:40;;;;;;;24.43;15.37;;;;;;;7.05;94.19;102454.16;2089458;28;20025;-68
2021/11/15 01:54:40;;;;;;;22.80;15.38;;;;;;;7.04;93.96;102452.41;2089408;28;20063;-69
2021/11/15 01:55:42;;;;;;;21.00;14.87;;;;;;;7.05;92.52;102469.75;2089395;28;20087;-68
2021/11/15 01:56:42;;;;;;;23.83;15.68;;;;;;;7.03;93.14;102450.69;2089458;28;20032;-68
2021/11/15 01:57:43;;;;;;;22.92;16.20;;;;;;;7.04;93.28;102455.00;2089348;28;20017;-69
2021/11/15 01:58:44;;;;;;;22.10;14.80;;;;;;;7.02;94.04;102464.53;2089484;28;20119;-68
2021/11/15 01:59:46;;;;;;;24.63;16.75;;;;;;;6.98;94.16;102458.47;2090051;28;20020;-68
2021/11/15 02:00:54;;;;;;;23.35;15.68;;;;;;;6.98;94.19;102447.25;2090002;28;20052;-70
2021/11/15 02:01:54;;;;;;;23.70;15.15;;;;;;;6.98;94.04;102455.03;2089840;28;20017;-70
2021/11/15 02:02:56;;;;;;;23.90;15.57;;;;;;;6.97;93.74;102445.53;2089287;28;20021;-69
2021/11/15 02:03:58;;;;;;;22.58;15.70;;;;;;;6.98;93.90;102457.63;2089444;28;20040;-69
2021/11/15 02:04:58;;;;;;;20.73;14.40;;;;;;;6.94;93.11;102442.06;2089948;28;20025;-70
2021/11/15 02:06:01;;;;;;;24.27;16.05;;;;;;;6.93;92.83;102440.34;2090046;28;20027;-69
2021/11/15 02:07:01;;;;;;;23.60;15.68;;;;;;;6.93;93.11;102442.94;2098156;28;20032;-69
2021/11/15 02:08:02;;;;;;;22.08;15.23;;;;;;;6.92;92.65;102433.41;2090981;28;20071;-69
2021/11/15 02:09:04;;;;;;;23.90;15.40;;;;;;;6.93;92.95;102435.16;2091069;28;20035;-69
2021/11/15 02:10:08;;;;;;;23.77;15.25;;;;;;;6.91;93.55;102447.25;2090891;28;20041;-69
2021/11/15 02:11:08;;;;;;;22.13;16.27;;;;;;;6.90;93.27;102435.16;2091064;28;20468;-70
2021/11/15 02:12:09;;;;;;;22.95;15.52;;;;;;;6.89;93.16;102436.03;2091005;28;20021;-69
2021/11/15 02:13:13;;;;;;;23.63;15.90;;;;;;;6.89;93.54;102430.81;2091045;28;20036;-69
2021/11/15 02:14:13;;;;;;;21.15;14.75;;;;;;;6.87;93.37;102429.94;2091545;28;20037;-69
2021/11/15 02:15:15;;;;;;;21.73;15.30;;;;;;;6.87;93.87;102429.94;2091602;28;20013;-69
2021/11/15 02:16:16;;;;;;;23.52;16.20;;;;;;;6.86;94.37;102427.34;2090920;28;20035;-69
2021/11/15 02:17:16;;;;;;;24.75;15.95;;;;;;;6.84;94.17;102424.75;2091117;28;20021;-69
2021/11/15 02:18:17;;;;;;;21.73;15.97;;;;;;;6.84;94.08;102424.75;2099118;28;20554;-69
2021/11/15 02:19:18;;;;;;;22.33;15.50;;;;;;;6.84;93.39;102416.97;2099091;28;20024;-69
2021/11/15 02:20:26;;;;;;;24.60;15.25;;;;;;;6.83;93.20;102423.03;2090868;28;20104;-70
2021/11/15 02:21:26;;;;;;;22.08;13.98;;;;;;;6.83;93.68;102412.66;2090937;28;20525;-70
2021/11/15 02:22:26;;;;;;;20.10;13.83;;;;;;;6.83;94.27;102412.66;2090844;28;20044;-69
2021/11/15 02:23:29;;;;;;;22.07;14.57;;;;;;;6.82;95.18;102416.97;2090946;28;20075;-70
2021/11/15 02:24:31;;;;;;;21.55;14.77;;;;;;;6.80;94.82;102415.25;2090579;28;20063;-69
2021/11/15 02:25:31;;;;;;;20.73;14.35;;;;;;;6.78;94.87;102411.81;2091002;28;20037;-69
2021/11/15 02:26:31;;;;;;;22.67;15.40;;;;;;;6.76;94.12;102410.94;2090880;28;20037;-69
2021/11/15 02:27:35;;;;;;;22.23;15.33;;;;;;;6.75;93.84;102410.09;2090863;28;20025;-70
2021/11/15 02:28:39;;;;;;;26.45;15.70;;;;;;;6.77;94.88;102410.09;2091439;28;20033;-69
2021/11/15 02:29:40;;;;;;;21.30;15.30;;;;;;;6.75;94.95;102419.59;2090818;28;20418;-70
2021/11/15 02:30:41;;;;;;;21.50;14.93;;;;;;;6.73;94.90;102403.13;2090862;28;20060;-70
2021/11/15 02:31:41;;;;;;;21.77;14.90;;;;;;;6.71;94.70;102408.38;2091335;28;20523;-70
2021/11/15 02:32:43;;;;;;;21.10;15.17;;;;;;;6.71;95.34;102403.16;2091486;28;20078;-70
2021/11/15 02:33:46;;;;;;;24.42;15.50;;;;;;;6.70;94.20;102411.78;2091372;28;20025;-71
2021/11/15 02:34:46;;;;;;;22.20;14.65;;;;;;;6.69;93.27;102400.56;2091471;28;20040;-70
2021/11/15 02:35:47;;;;;;;28.90;16.13;;;;;;;6.73;94.00;102416.13;2090815;28;20048;-71
2021/11/15 02:36:47;;;;;;;22.97;16.10;;;;;;;6.72;94.44;102412.69;2082552;28;20130;-70
2021/11/15 02:37:48;;;;;;;22.57;15.20;;;;;;;6.70;93.59;102417.88;2090735;28;20301;-70
2021/11/15 02:38:49;;;;;;;21.00;13.93;;;;;;;6.72;94.26;102406.63;2099051;28;20020;-70
2021/11/15 02:39:50;;;;;;;23.02;16.27;;;;;;;6.71;93.92;102410.97;2099067;28;20033;-70
2021/11/15 02:40:51;;;;;;;20.75;14.40;;;;;;;6.70;94.04;102411.78;2091296;28;20106;-70
2021/11/15 02:41:51;;;;;;;20.40;13.90;;;;;;;6.70;94.45;102404.88;2091420;28;20021;-70
2021/11/15 02:42:52;;;;;;;24.40;17.10;;;;;;;6.69;95.38;102408.34;2091274;28;20795;-71
2021/11/15 02:43:54;;;;;;;23.60;15.93;;;;;;;6.67;95.36;102410.06;2091263;28;20028;-69
2021/11/15 02:44:54;;;;;;;23.80;15.63;;;;;;;6.66;94.59;102404.88;2091349;28;20095;-69
2021/11/15 02:45:54;;;;;;;20.67;14.23;;;;;;;6.66;94.98;102405.75;2091401;28;20414;-69
2021/11/15 02:46:55;;;;;;;24.88;15.63;;;;;;;6.65;95.29;102408.34;2091348;28;20074;-69
2021/11/15 02:47:56;;;;;;;22.93;15.07;;;;;;;6.64;95.31;102402.28;2091317;28;20025;-69
2021/11/15 02:48:57;;;;;;;20.95;14.35;;;;;;;6.64;94.62;102402.28;2091272;28;20500;-69
2021/11/15 02:49:57;;;;;;;23.27;14.98;;;;;;;6.65;94.90;102409.22;2091344;28;20028;-68
2021/11/15 02:50:58;;;;;;;21.50;14.83;;;;;;;6.65;95.46;102414.41;2090689;28;20056;-69
2021/11/15 02:51:58;;;;;;;20.50;13.00;;;;;;;6.66;95.55;102415.25;2090641;28;20414;-69
2021/11/15 02:53:03;;;;;;;21.13;15.10;;;;;;;6.63;94.95;102410.06;2082391;28;20080;-70
2021/11/15 02:54:04;;;;;;;22.42;15.15;;;;;;;6.62;94.43;102411.81;2090751;28;20025;-69
2021/11/15 02:55:05;;;;;;;19.73;14.70;;;;;;;6.63;94.77;102416.13;2091429;28;20024;-69
2021/11/15 02:56:06;;;;;;;24.77;16.33;;;;;;;6.61;94.01;102412.69;2090525;28;20067;-69
2021/11/15 02:57:09;;;;;;;24.00;15.70;;;;;;;6.61;93.96;102411.81;2090839;28;20021;-69
2021/11/15 02:58:11;;;;;;;20.60;15.27;;;;;;;6.62;94.36;102403.16;2091193;28;20066;-69
2021/11/15 02:59:12;;;;;;;22.65;15.40;;;;;;;6.62;94.18;102417.00;2091154;28;20517;-69
2021/11/15 03:00:22;;;;;;;21.58;15.07;;;;;;;6.64;93.90;102415.25;2091336;28;20029;-68
2021/11/15 03:01:22;;;;;;;21.85;14.88;;;;;;;6.62;94.16;102414.41;2090442;28;20029;-69
2021/11/15 03:02:24;;;;;;;22.13;15.10;;;;;;;6.62;94.43;102422.19;2082320;28;20025;-68
2021/11/15 03:03:26;;;;;;;24.15;15.30;;;;;;;6.61;95.36;102417.88;2090609;28;20350;-69
2021/11/15 03:04:26;;;;;;;25.42;15.90;;;;;;;6.60;95.53;102415.28;2091192;28;20100;-69
2021/11/15 03:05:29;;;;;;;23.07;15.60;;;;;;;6.59;94.97;102422.19;2091165;28;20028;-68
2021/11/15 03:06:30;;;;;;;23.60;15.45;;;;;;;6.59;95.63;102413.53;2091217;28;20479;-69
2021/11/15 03:07:30;;;;;;;18.63;15.50;;;;;;;6.58;95.03;102417.88;2091243;28;20361;-68
2021/11/15 03:08:31;;;;;;;23.27;16.07;;;;;;;6.57;93.91;102421.34;2091037;28;20031;-69
2021/11/15 03:09:31;;;;;;;22.48;15.48;;;;;;;6.56;94.86;102414.41;2091077;28;20037;-69
2021/11/15 03:10:33;;;;;;;25.77;16.23;;;;;;;6.55;94.18;102412.69;2091107;28;20045;-70
2021/11/15 03:11:34;;;;;;;23.13;16.20;;;;;;;6.55;94.27;102415.28;2090400;28;20457;-70
2021/11/15 03:12:34;;;;;;;23.42;15.35;;;;;;;6.55;93.98;102410.09;2090484;28;20071;-69
2021/11/15 03:13:46;;;;;;;24.77;17.07;;;;;;;6.55;94.56;102417.88;2091188;28;20083;-69
2021/11/15 03:14:47;;;;;;;22.33;14.52;;;;;;;6.53;95.03;102415.28;2090471;28;20386;-69
2021/11/15 03:15:50;;;;;;;23.20;16.63;;;;;;;6.52;95.29;102408.38;2090522;28;20036;-69
2021/11/15 03:16:50;;;;;;;24.73;15.35;;;;;;;6.51;94.57;102411.84;2090393;28;20531;-69
2021/11/15 03:18:00;;;;;;;21.03;15.90;;;;;;;6.52;95.12;102413.56;2090068;28;20111;-69
2021/11/15 03:19:00;;;;;;;22.83;15.18;;;;;;;6.51;94.54;102409.25;2083327;28;20032;-69
2021/11/15 03:20:00;;;;;;;23.90;15.57;;;;;;;6.52;94.39;102417.88;2090345;28;20025;-69
2021/11/15 03:21:30;;;;;;;23.13;15.97;;;;;;;6.54;95.18;102411.81;2091055;28;20100;-69
2021/11/15 03:22:30;;;;;;;22.75;15.05;;;;;;;6.53;94.75;102419.59;2081665;28;20037;-69
2021/11/15 03:23:33;;;;;;;25.33;15.57;;;;;;;6.53;94.64;102414.41;2090488;28;20130;-69
2021/11/15 03:24:33;;;;;;;22.27;14.93;;;;;;;6.52;95.56;102410.09;2090800;28;20048;-69
2021/11/15 03:25:34;;;;;;;24.13;16.27;;;;;;;6.52;95.30;102412.69;2091007;28;20036;-68
2021/11/15 03:26:34;;;;;;;25.47;16.33;;;;;;;6.51;94.91;102417.03;2091089;28;20049;-69
2021/11/15 03:27:35;;;;;;;22.93;15.73;;;;;;;6.53;94.98;102414.41;2091065;28;20502;-70
2021/11/15 03:28:38;;;;;;;22.67;15.25;;;;;;;6.54;95.05;102410.97;2091056;28;20072;-69
2021/11/15 03:29:39;;;;;;;25.00;17.35;;;;;;;6.54;95.00;102410.97;2090967;28;20028;-70
2021/11/15 03:30:40;;;;;;;26.43;17.57;;;;;;;6.53;95.35;102417.00;2091014;28;20027;-69
2021/11/15 03:31:40;;;;;;;21.67;16.50;;;;;;;6.52;95.58;102413.56;2090987;28;20060;-69
2021/11/15 03:32:45;;;;;;;26.90;16.48;;;;;;;6.52;95.88;102412.69;2090255;28;20032;-69
2021/11/15 03:33:47;;;;;;;20.75;15.35;;;;;;;6.51;96.21;102414.44;2090401;28;20021;-69
2021/11/15 03:34:48;;;;;;;25.98;17.02;;;;;;;6.51;96.41;102417.03;2090944;28;20092;-69
2021/11/15 03:35:48;;;;;;;23.80;17.10;;;;;;;6.52;95.84;102412.69;2090297;28;20363;-70
2021/11/15 03:36:48;;;;;;;24.67;17.00;;;;;;;6.52;95.54;102416.16;2082070;28;20048;-69
2021/11/15 03:37:50;;;;;;;22.23;16.03;;;;;;;6.54;96.50;102416.16;2090344;28;20071;-69
2021/11/15 03:38:52;;;;;;;22.48;15.85;;;;;;;6.53;96.52;102409.22;2091008;28;20457;-69
2021/11/15 03:39:52;;;;;;;24.55;17.45;;;;;;;6.51;96.34;102413.56;2090212;28;20029;-69
2021/11/15 03:40:54;;;;;;;27.57;17.70;;;;;;;6.50;96.46;102414.41;2090308;28;20020;-69
2021/11/15 03:41:54;;;;;;;;;;;;;;;6.51;96.89;102417.03;2090659;28;20125;-69
2021/11/15 03:42:58;;;;;;;22.40;14.93;;;;;;;6.50;96.86;102414.41;2090307;28;20359;-69
2021/11/15 03:43:59;;;;;;;21.85;15.25;;;;;;;6.51;97.28;102416.13;2090789;28;20040;-69
2021/11/15 03:44:59;;;;;;;26.00;17.10;;;;;;;6.51;97.33;102410.94;2089996;28;20025;-69
2021/11/15 03:46:00;;;;;;;23.47;14.70;;;;;;;6.49;96.97;102415.25;2090325;28;20021;-69
2021/11/15 03:47:01;;;;;;;25.42;16.13;;;;;;;6.49;97.35;102417.84;2090250;28;20122;-69
2021/11/15 03:48:02;;;;;;;26.43;16.43;;;;;;;6.50;97.58;102423.03;2090255;28;20394;-69
2021/11/15 03:49:03;;;;;;;23.20;15.88;;;;;;;6.50;96.42;102417.84;2090888;28;20108;-69
2021/11/15 03:50:06;;;;;;;22.70;15.55;;;;;;;6.52;96.81;102423.06;2090863;28;20032;-70
2021/11/15 03:51:07;;;;;;;23.83;16.33;;;;;;;6.52;97.21;102413.56;2090844;28;20025;-69
2021/11/15 03:52:07;;;;;;;23.23;16.47;;;;;;;6.53;97.48;102411.81;2090852;28;20031;-69
2021/11/15 03:53:11;;;;;;;23.00;16.33;;;;;;;6.52;98.03;102412.69;2090852;28;20060;-69
2021/11/15 03:54:11;;;;;;;23.98;15.93;;;;;;;6.50;97.75;102409.22;2090204;28;20063;-69
2021/11/15 03:55:15;;;;;;;21.55;14.57;;;;;;;6.51;97.25;102416.13;2081935;28;20055;-68
2021/11/15 03:56:22;;;;;;;23.52;16.38;;;;;;;6.53;97.65;102414.41;2090078;28;20079;-69
2021/11/15 03:57:23;;;;;;;25.08;16.48;;;;;;;6.53;96.72;102417.00;2090844;28;20021;-69
2021/11/15 03:58:23;;;;;;;27.63;18.07;;;;;;;6.53;96.63;102414.41;2090794;28;20505;-69
2021/11/15 03:59:23;;;;;;;23.67;16.60;;;;;;;6.53;97.00;102411.81;2090136;28;20029;-69
2021/11/15 04:00:28;;;;;;;25.23;17.03;;;;;;;6.53;96.55;102414.41;2090256;28;20466;-69
2021/11/15 04:01:32;;;;;;;24.30;17.02;;;;;;;6.53;96.36;102419.59;2090109;28;20033;-69
2021/11/15 04:02:33;;;;;;;25.45;17.58;;;;;;;6.53;96.55;102410.09;2090239;28;20064;-69
2021/11/15 04:03:34;;;;;;;28.92;17.73;;;;;;;6.53;97.13;102412.69;2090718;28;20032;-69
2021/11/15 04:04:57;;;;;;;24.85;15.80;;;;;;;6.53;96.58;102414.41;2090004;28;20474;-69
2021/11/15 04:06:04;;;;;;;24.35;16.58;;;;;;;6.53;96.62;102417.88;2090347;28;20024;-69
2021/11/15 04:07:07;;;;;;;24.48;15.95;;;;;;;6.52;96.75;102417.88;2090689;28;20028;-69
2021/11/15 04:08:07;;;;;;;26.42;17.38;;;;;;;6.51;96.70;102410.94;2090684;28;20520;-69
2021/11/15 04:09:09;;;;;;;25.70;16.80;;;;;;;6.50;96.62;102420.44;2090660;28;20025;-69
2021/11/15 04:10:15;;;;;;;22.05;16.05;;;;;;;6.53;96.99;102422.19;2090665;28;20032;-70
2021/11/15 04:11:19;;;;;;;27.02;18.17;;;;;;;6.52;97.35;102417.88;2090727;28;20028;-71
2021/11/15 04:12:19;;;;;;;25.63;16.75;;;;;;;6.53;97.45;102427.38;2090686;28;20497;-70
2021/11/15 04:13:24;;;;;;;23.77;16.50;;;;;;;6.53;97.33;102430.84;2090664;28;20021;-69
2021/11/15 04:14:24;;;;;;;24.35;16.75;;;;;;;6.53;97.10;102429.97;2090640;28;20056;-69
2021/11/15 04:15:24;;;;;;;24.00;16.97;;;;;;;6.52;97.43;102423.06;2090063;28;20594;-69
2021/11/15 04:16:25;;;;;;;27.67;17.73;;;;;;;6.51;97.17;102427.41;2090076;28;20048;-69
2021/11/15 04:17:25;;;;;;;24.67;16.83;;;;;;;6.51;97.06;102431.69;2090621;28;20037;-70
2021/11/15 04:18:30;;;;;;;23.10;16.33;;;;;;;6.51;97.28;102426.53;2090702;28;20033;-70
2021/11/15 04:19:30;;;;;;;24.42;17.10;;;;;;;6.50;97.14;102430.81;2090586;28;20075;-69
2021/11/15 04:20:31;;;;;;;25.00;17.13;;;;;;;6.47;96.99;102430.84;2090569;28;20074;-70
2021/11/15 04:21:32;;;;;;;24.50;17.67;;;;;;;6.47;96.64;102432.56;2090661;28;20423;-69
2021/11/15 04:22:35;;;;;;;25.15;16.58;;;;;;;6.48;96.82;102432.56;2090614;28;20393;-69
2021/11/15 04:23:35;;;;;;;21.83;16.27;;;;;;;6.47;97.04;102429.97;2090006;28;20468;-70
2021/11/15 04:24:35;;;;;;;25.67;17.23;;;;;;;6.48;96.66;102429.09;2089853;28;20128;-69
2021/11/15 04:25:37;;;;;;;23.50;16.50;;;;;;;6.47;96.75;102432.56;2090529;28;20397;-70
2021/11/15 04:26:37;;;;;;;;;;;;;;;6.50;97.11;102429.97;2090944;28;20032;-70
2021/11/15 04:27:37;;;;;;;24.67;15.25;;;;;;;6.49;96.51;102428.22;2090580;28;19955;-70
2021/11/15 04:28:38;;;;;;;27.10;16.77;;;;;;;6.47;96.06;102429.97;2090558;28;20028;-70
2021/11/15 04:29:39;;;;;;;24.63;16.63;;;;;;;6.47;95.81;102430.84;2089832;28;20033;-70
2021/11/15 04:30:39;;;;;;;25.63;16.98;;;;;;;6.47;96.79;102435.16;2090532;28;20470;-70
2021/11/15 04:31:39;;;;;;;27.33;17.57;;;;;;;6.46;96.06;102438.63;2090596;28;20130;-70
2021/11/15 04:32:42;;;;;;;25.60;17.13;;;;;;;6.44;96.34;102430.84;2090457;28;20029;-70
2021/11/15 04:33:42;;;;;;;24.48;16.35;;;;;;;6.44;96.25;102434.28;2090390;28;20032;-70
2021/11/15 04:34:42;;;;;;;26.37;17.67;;;;;;;6.44;95.91;102436.88;2089888;28;20025;-69
2021/11/15 04:35:43;;;;;;;26.10;16.90;;;;;;;6.43;96.40;102434.28;2089920;28;20370;-69
2021/11/15 04:36:43;;;;;;;25.17;17.00;;;;;;;6.41;96.42;102425.66;2090445;28;20492;-68
2021/11/15 04:37:45;;;;;;;24.17;16.23;;;;;;;6.41;96.15;102436.91;2090501;28;20025;-69
2021/11/15 04:38:46;;;;;;;23.73;17.02;;;;;;;6.39;95.99;102433.44;2090386;28;20029;-69
2021/11/15 04:39:46;;;;;;;25.13;17.15;;;;;;;6.38;95.52;102433.41;2090554;28;20031;-69
2021/11/15 04:40:46;;;;;;;24.03;16.87;;;;;;;6.38;96.07;102442.06;2090501;28;20051;-69
2021/11/15 04:41:47;;;;;;;25.67;16.70;;;;;;;6.37;95.73;102437.72;2090536;28;20424;-70
2021/11/15 04:42:47;;;;;;;25.67;17.20;;;;;;;6.35;95.64;102436.00;2090470;28;20029;-69